sensor_id;sensor_type;location;lat;lon;timestamp;temperature;humidity
21331;DHT22;10824;51.632;4.950;2023-04-03T00:01:05;5.00;60.60
21331;DHT22;10824;51.632;4.950;2023-04-03T00:03:32;4.80;59.60
21331;DHT22;10824;51.632;4.950;2023-04-03T00:06:00;4.80;61.20
21331;DHT22;10824;51.632;4.950;2023-04-03T00:08:27;4.70;61.00
21331;DHT22;10824;51.632;4.950;2023-04-03T00:10:54;4.80;61.90
21331;DHT22;10824;51.632;4.950;2023-04-03T00:13:21;4.80;60.50
21331;DHT22;10824;51.632;4.950;2023-04-03T00:15:48;4.70;61.40
21331;DHT22;10824;51.632;4.950;2023-04-03T00:18:15;4.70;62.00
21331;DHT22;10824;51.632;4.950;2023-04-03T00:20:43;4.60;62.30
21331;DHT22;10824;51.632;4.950;2023-04-03T00:23:10;4.60;62.30
21331;DHT22;10824;51.632;4.950;2023-04-03T00:25:37;4.70;62.50
21331;DHT22;10824;51.632;4.950;2023-04-03T00:28:05;4.80;61.60
21331;DHT22;10824;51.632;4.950;2023-04-03T00:30:32;4.70;59.10
21331;DHT22;10824;51.632;4.950;2023-04-03T00:33:00;4.60;60.80
21331;DHT22;10824;51.632;4.950;2023-04-03T00:35:27;4.60;60.70
21331;DHT22;10824;51.632;4.950;2023-04-03T00:37:55;4.60;61.30
21331;DHT22;10824;51.632;4.950;2023-04-03T00:40:25;4.70;60.40
21331;DHT22;10824;51.632;4.950;2023-04-03T00:42:59;4.60;59.50
21331;DHT22;10824;51.632;4.950;2023-04-03T00:45:35;4.40;59.90
21331;DHT22;10824;51.632;4.950;2023-04-03T00:48:05;4.50;60.40
21331;DHT22;10824;51.632;4.950;2023-04-03T00:50:39;4.50;60.40
21331;DHT22;10824;51.632;4.950;2023-04-03T00:53:10;4.40;59.70
21331;DHT22;10824;51.632;4.950;2023-04-03T00:55:38;4.40;61.20
21331;DHT22;10824;51.632;4.950;2023-04-03T00:58:06;4.30;62.10
21331;DHT22;10824;51.632;4.950;2023-04-03T01:00:37;4.10;62.20
21331;DHT22;10824;51.632;4.950;2023-04-03T01:03:06;4.20;63.40
21331;DHT22;10824;51.632;4.950;2023-04-03T01:05:35;4.20;62.80
21331;DHT22;10824;51.632;4.950;2023-04-03T01:08:03;4.00;61.80
21331;DHT22;10824;51.632;4.950;2023-04-03T01:10:30;4.10;64.20
21331;DHT22;10824;51.632;4.950;2023-04-03T01:12:59;4.20;65.40
21331;DHT22;10824;51.632;4.950;2023-04-03T01:15:27;4.10;65.00
21331;DHT22;10824;51.632;4.950;2023-04-03T01:18:01;4.10;65.00
21331;DHT22;10824;51.632;4.950;2023-04-03T01:28:11;4.00;64.20
21331;DHT22;10824;51.632;4.950;2023-04-03T01:30:49;4.00;64.60
21331;DHT22;10824;51.632;4.950;2023-04-03T01:33:17;4.10;63.50
21331;DHT22;10824;51.632;4.950;2023-04-03T01:35:46;4.10;63.60
21331;DHT22;10824;51.632;4.950;2023-04-03T01:38:13;4.00;62.60
21331;DHT22;10824;51.632;4.950;2023-04-03T01:40:41;4.00;63.60
21331;DHT22;10824;51.632;4.950;2023-04-03T01:43:09;4.00;63.90
21331;DHT22;10824;51.632;4.950;2023-04-03T01:45:37;4.00;64.20
21331;DHT22;10824;51.632;4.950;2023-04-03T01:48:04;3.90;64.40
21331;DHT22;10824;51.632;4.950;2023-04-03T01:50:31;3.90;64.60
21331;DHT22;10824;51.632;4.950;2023-04-03T01:52:58;3.80;64.50
21331;DHT22;10824;51.632;4.950;2023-04-03T01:55:25;3.70;64.80
21331;DHT22;10824;51.632;4.950;2023-04-03T01:57:52;3.70;65.50
21331;DHT22;10824;51.632;4.950;2023-04-03T02:00:19;3.70;65.50
21331;DHT22;10824;51.632;4.950;2023-04-03T02:02:46;3.80;64.90
21331;DHT22;10824;51.632;4.950;2023-04-03T02:05:13;3.80;64.40
21331;DHT22;10824;51.632;4.950;2023-04-03T02:07:41;3.90;64.30
21331;DHT22;10824;51.632;4.950;2023-04-03T02:10:08;3.80;64.20
21331;DHT22;10824;51.632;4.950;2023-04-03T02:12:35;3.70;66.20
21331;DHT22;10824;51.632;4.950;2023-04-03T02:15:02;3.80;64.70
21331;DHT22;10824;51.632;4.950;2023-04-03T02:17:30;3.70;64.10
21331;DHT22;10824;51.632;4.950;2023-04-03T02:19:57;3.60;64.60
21331;DHT22;10824;51.632;4.950;2023-04-03T02:22:24;3.50;65.00
21331;DHT22;10824;51.632;4.950;2023-04-03T02:24:51;3.50;65.80
21331;DHT22;10824;51.632;4.950;2023-04-03T02:27:19;3.50;65.90
21331;DHT22;10824;51.632;4.950;2023-04-03T02:29:47;3.60;67.00
21331;DHT22;10824;51.632;4.950;2023-04-03T02:32:15;3.60;66.60
21331;DHT22;10824;51.632;4.950;2023-04-03T02:34:44;3.50;66.10
21331;DHT22;10824;51.632;4.950;2023-04-03T02:37:13;3.40;66.10
21331;DHT22;10824;51.632;4.950;2023-04-03T02:39:42;3.40;67.00
21331;DHT22;10824;51.632;4.950;2023-04-03T02:42:09;3.50;67.40
21331;DHT22;10824;51.632;4.950;2023-04-03T02:44:37;3.50;66.30
21331;DHT22;10824;51.632;4.950;2023-04-03T02:47:05;3.40;65.40
21331;DHT22;10824;51.632;4.950;2023-04-03T02:49:32;3.30;66.50
21331;DHT22;10824;51.632;4.950;2023-04-03T02:51:59;3.30;67.80
21331;DHT22;10824;51.632;4.950;2023-04-03T02:54:26;3.30;67.70
21331;DHT22;10824;51.632;4.950;2023-04-03T02:57:00;3.30;67.90
21331;DHT22;10824;51.632;4.950;2023-04-03T02:59:28;3.20;67.50
21331;DHT22;10824;51.632;4.950;2023-04-03T03:01:55;3.20;68.70
21331;DHT22;10824;51.632;4.950;2023-04-03T03:04:22;3.10;68.40
21331;DHT22;10824;51.632;4.950;2023-04-03T03:06:49;3.10;69.20
21331;DHT22;10824;51.632;4.950;2023-04-03T03:09:17;3.10;69.30
21331;DHT22;10824;51.632;4.950;2023-04-03T03:11:44;3.20;69.70
21331;DHT22;10824;51.632;4.950;2023-04-03T03:14:11;3.00;68.30
21331;DHT22;10824;51.632;4.950;2023-04-03T03:16:38;3.10;69.80
21331;DHT22;10824;51.632;4.950;2023-04-03T03:19:05;3.10;70.10
21331;DHT22;10824;51.632;4.950;2023-04-03T03:21:33;3.10;69.70
21331;DHT22;10824;51.632;4.950;2023-04-03T03:24:01;3.00;69.50
21331;DHT22;10824;51.632;4.950;2023-04-03T03:26:28;3.10;70.80
21331;DHT22;10824;51.632;4.950;2023-04-03T03:28:56;3.10;71.10
21331;DHT22;10824;51.632;4.950;2023-04-03T03:31:23;3.00;70.40
21331;DHT22;10824;51.632;4.950;2023-04-03T03:33:50;3.00;71.90
21331;DHT22;10824;51.632;4.950;2023-04-03T03:36:18;3.00;71.50
21331;DHT22;10824;51.632;4.950;2023-04-03T03:38:45;3.00;71.10
21331;DHT22;10824;51.632;4.950;2023-04-03T03:41:12;3.00;71.80
21331;DHT22;10824;51.632;4.950;2023-04-03T03:43:42;3.00;71.40
21331;DHT22;10824;51.632;4.950;2023-04-03T03:46:11;3.00;71.60
21331;DHT22;10824;51.632;4.950;2023-04-03T03:48:38;2.90;72.30
21331;DHT22;10824;51.632;4.950;2023-04-03T03:51:05;3.00;71.30
21331;DHT22;10824;51.632;4.950;2023-04-03T03:53:35;2.80;71.00
21331;DHT22;10824;51.632;4.950;2023-04-03T03:56:06;2.80;72.30
21331;DHT22;10824;51.632;4.950;2023-04-03T03:58:36;2.70;72.90
21331;DHT22;10824;51.632;4.950;2023-04-03T04:01:04;2.80;75.30
21331;DHT22;10824;51.632;4.950;2023-04-03T04:03:35;2.90;73.80
21331;DHT22;10824;51.632;4.950;2023-04-03T04:06:04;2.80;73.80
21331;DHT22;10824;51.632;4.950;2023-04-03T04:08:32;2.80;73.80
21331;DHT22;10824;51.632;4.950;2023-04-03T04:10:59;2.70;74.50
21331;DHT22;10824;51.632;4.950;2023-04-03T04:13:27;2.80;74.40
21331;DHT22;10824;51.632;4.950;2023-04-03T04:15:55;2.80;75.50
21331;DHT22;10824;51.632;4.950;2023-04-03T04:18:22;2.70;72.80
21331;DHT22;10824;51.632;4.950;2023-04-03T04:20:51;2.70;74.20
21331;DHT22;10824;51.632;4.950;2023-04-03T04:23:18;2.80;74.40
21331;DHT22;10824;51.632;4.950;2023-04-03T04:25:49;2.70;72.80
21331;DHT22;10824;51.632;4.950;2023-04-03T04:28:18;2.70;72.80
21331;DHT22;10824;51.632;4.950;2023-04-03T04:30:47;2.60;74.10
21331;DHT22;10824;51.632;4.950;2023-04-03T04:33:15;2.60;74.80
21331;DHT22;10824;51.632;4.950;2023-04-03T04:35:44;2.50;74.00
21331;DHT22;10824;51.632;4.950;2023-04-03T04:38:13;2.50;75.10
21331;DHT22;10824;51.632;4.950;2023-04-03T04:40:40;2.40;75.70
21331;DHT22;10824;51.632;4.950;2023-04-03T04:43:08;2.40;76.30
21331;DHT22;10824;51.632;4.950;2023-04-03T04:45:35;2.40;76.50
21331;DHT22;10824;51.632;4.950;2023-04-03T04:48:03;2.30;75.80
21331;DHT22;10824;51.632;4.950;2023-04-03T04:50:31;2.40;77.60
21331;DHT22;10824;51.632;4.950;2023-04-03T04:52:58;2.40;77.20
21331;DHT22;10824;51.632;4.950;2023-04-03T04:55:25;2.40;77.50
21331;DHT22;10824;51.632;4.950;2023-04-03T04:57:52;2.50;76.70
21331;DHT22;10824;51.632;4.950;2023-04-03T05:00:20;2.50;76.70
21331;DHT22;10824;51.632;4.950;2023-04-03T05:02:48;2.50;76.00
21331;DHT22;10824;51.632;4.950;2023-04-03T05:05:17;2.50;75.30
21331;DHT22;10824;51.632;4.950;2023-04-03T05:07:44;2.50;75.20
21331;DHT22;10824;51.632;4.950;2023-04-03T05:10:11;2.50;74.10
21331;DHT22;10824;51.632;4.950;2023-04-03T05:12:39;2.60;74.40
21331;DHT22;10824;51.632;4.950;2023-04-03T05:15:08;2.60;73.60
21331;DHT22;10824;51.632;4.950;2023-04-03T05:17:35;2.50;73.10
21331;DHT22;10824;51.632;4.950;2023-04-03T05:20:08;2.50;74.80
21331;DHT22;10824;51.632;4.950;2023-04-03T05:22:36;2.40;76.10
21331;DHT22;10824;51.632;4.950;2023-04-03T05:25:07;2.40;76.00
21331;DHT22;10824;51.632;4.950;2023-04-03T05:27:34;2.40;76.20
21331;DHT22;10824;51.632;4.950;2023-04-03T05:30:02;2.30;76.60
21331;DHT22;10824;51.632;4.950;2023-04-03T05:32:31;2.40;78.00
21331;DHT22;10824;51.632;4.950;2023-04-03T05:35:21;2.40;77.70
21331;DHT22;10824;51.632;4.950;2023-04-03T05:37:52;2.40;77.20
21331;DHT22;10824;51.632;4.950;2023-04-03T05:40:20;2.50;77.40
21331;DHT22;10824;51.632;4.950;2023-04-03T05:42:51;2.60;76.30
21331;DHT22;10824;51.632;4.950;2023-04-03T05:45:23;2.50;75.90
21331;DHT22;10824;51.632;4.950;2023-04-03T05:47:50;2.60;75.50
21331;DHT22;10824;51.632;4.950;2023-04-03T05:50:18;2.50;75.00
21331;DHT22;10824;51.632;4.950;2023-04-03T05:52:49;2.60;76.30
21331;DHT22;10824;51.632;4.950;2023-04-03T05:55:18;2.60;76.80
21331;DHT22;10824;51.632;4.950;2023-04-03T05:57:45;2.60;76.80
21331;DHT22;10824;51.632;4.950;2023-04-03T06:00:14;2.60;78.30
21331;DHT22;10824;51.632;4.950;2023-04-03T06:02:53;2.60;78.40
21331;DHT22;10824;51.632;4.950;2023-04-03T06:05:23;2.70;78.40
21331;DHT22;10824;51.632;4.950;2023-04-03T06:07:50;2.70;76.90
21331;DHT22;10824;51.632;4.950;2023-04-03T06:10:18;2.70;77.10
21331;DHT22;10824;51.632;4.950;2023-04-03T06:12:46;2.70;77.10
21331;DHT22;10824;51.632;4.950;2023-04-03T06:15:14;2.80;77.20
21331;DHT22;10824;51.632;4.950;2023-04-03T06:17:41;2.80;76.00
21331;DHT22;10824;51.632;4.950;2023-04-03T06:20:09;2.80;75.20
21331;DHT22;10824;51.632;4.950;2023-04-03T06:22:36;2.80;75.10
21331;DHT22;10824;51.632;4.950;2023-04-03T06:25:04;2.90;74.50
21331;DHT22;10824;51.632;4.950;2023-04-03T06:27:31;2.90;74.20
21331;DHT22;10824;51.632;4.950;2023-04-03T06:30:02;3.00;73.40
21331;DHT22;10824;51.632;4.950;2023-04-03T06:32:48;3.00;72.40
21331;DHT22;10824;51.632;4.950;2023-04-03T06:35:18;3.00;71.60
21331;DHT22;10824;51.632;4.950;2023-04-03T06:38:02;3.10;70.60
21331;DHT22;10824;51.632;4.950;2023-04-03T06:41:04;3.20;69.20
21331;DHT22;10824;51.632;4.950;2023-04-03T06:43:35;3.30;67.80
21331;DHT22;10824;51.632;4.950;2023-04-03T06:46:03;3.50;65.20
21331;DHT22;10824;51.632;4.950;2023-04-03T06:48:31;3.50;63.60
21331;DHT22;10824;51.632;4.950;2023-04-03T06:50:58;3.40;61.90
21331;DHT22;10824;51.632;4.950;2023-04-03T06:53:25;3.50;62.90
21331;DHT22;10824;51.632;4.950;2023-04-03T06:55:52;3.50;63.00
21331;DHT22;10824;51.632;4.950;2023-04-03T06:58:19;3.60;63.40
21331;DHT22;10824;51.632;4.950;2023-04-03T07:00:48;3.60;63.00
21331;DHT22;10824;51.632;4.950;2023-04-03T07:03:16;3.70;62.80
21331;DHT22;10824;51.632;4.950;2023-04-03T07:05:43;3.80;61.20
21331;DHT22;10824;51.632;4.950;2023-04-03T07:08:11;3.80;59.70
21331;DHT22;10824;51.632;4.950;2023-04-03T07:10:40;3.90;58.40
21331;DHT22;10824;51.632;4.950;2023-04-03T07:13:07;4.00;59.00
21331;DHT22;10824;51.632;4.950;2023-04-03T07:15:34;4.10;58.00
21331;DHT22;10824;51.632;4.950;2023-04-03T07:18:03;4.10;55.50
21331;DHT22;10824;51.632;4.950;2023-04-03T07:20:32;4.10;54.00
21331;DHT22;10824;51.632;4.950;2023-04-03T07:22:59;4.20;54.30
21331;DHT22;10824;51.632;4.950;2023-04-03T07:25:30;4.40;54.20
21331;DHT22;10824;51.632;4.950;2023-04-03T07:27:59;4.40;53.50
21331;DHT22;10824;51.632;4.950;2023-04-03T07:30:27;4.50;51.80
21331;DHT22;10824;51.632;4.950;2023-04-03T07:32:54;4.50;49.30
21331;DHT22;10824;51.632;4.950;2023-04-03T07:35:21;4.60;49.00
21331;DHT22;10824;51.632;4.950;2023-04-03T07:37:50;4.70;50.60
21331;DHT22;10824;51.632;4.950;2023-04-03T07:40:17;4.90;50.20
21331;DHT22;10824;51.632;4.950;2023-04-03T07:42:46;5.00;50.30
21331;DHT22;10824;51.632;4.950;2023-04-03T07:45:13;5.00;46.50
21331;DHT22;10824;51.632;4.950;2023-04-03T07:47:40;5.00;45.90
21331;DHT22;10824;51.632;4.950;2023-04-03T07:50:08;5.10;45.30
21331;DHT22;10824;51.632;4.950;2023-04-03T07:52:36;5.20;44.00
21331;DHT22;10824;51.632;4.950;2023-04-03T07:55:03;5.30;44.80
21331;DHT22;10824;51.632;4.950;2023-04-03T07:57:30;5.30;41.30
21331;DHT22;10824;51.632;4.950;2023-04-03T07:59:57;5.40;42.50
21331;DHT22;10824;51.632;4.950;2023-04-03T08:02:24;5.50;41.90
21331;DHT22;10824;51.632;4.950;2023-04-03T08:04:51;5.60;42.50
21331;DHT22;10824;51.632;4.950;2023-04-03T08:07:19;5.50;40.70
21331;DHT22;10824;51.632;4.950;2023-04-03T08:09:46;5.70;41.30
21331;DHT22;10824;51.632;4.950;2023-04-03T08:12:13;5.70;37.40
21331;DHT22;10824;51.632;4.950;2023-04-03T08:14:41;5.80;37.30
21331;DHT22;10824;51.632;4.950;2023-04-03T08:17:08;5.90;33.30
21331;DHT22;10824;51.632;4.950;2023-04-03T08:19:39;6.00;34.10
21331;DHT22;10824;51.632;4.950;2023-04-03T08:22:06;6.00;30.00
21331;DHT22;10824;51.632;4.950;2023-04-03T08:24:34;6.00;28.30
21331;DHT22;10824;51.632;4.950;2023-04-03T08:27:02;6.10;31.50
21331;DHT22;10824;51.632;4.950;2023-04-03T08:29:29;6.10;30.30
21331;DHT22;10824;51.632;4.950;2023-04-03T08:31:58;6.20;30.60
21331;DHT22;10824;51.632;4.950;2023-04-03T08:34:25;6.30;30.60
21331;DHT22;10824;51.632;4.950;2023-04-03T08:36:52;6.30;27.00
21331;DHT22;10824;51.632;4.950;2023-04-03T08:39:19;6.40;25.60
21331;DHT22;10824;51.632;4.950;2023-04-03T08:41:46;6.30;22.80
21331;DHT22;10824;51.632;4.950;2023-04-03T08:47:23;6.50;25.00
21331;DHT22;10824;51.632;4.950;2023-04-03T08:49:57;6.50;20.00
21331;DHT22;10824;51.632;4.950;2023-04-03T08:52:36;6.50;17.50
21331;DHT22;10824;51.632;4.950;2023-04-03T08:55:10;6.60;17.20
21331;DHT22;10824;51.632;4.950;2023-04-03T08:57:42;6.70;16.50
21331;DHT22;10824;51.632;4.950;2023-04-03T09:02:50;6.90;15.50
21331;DHT22;10824;51.632;4.950;2023-04-03T09:17:00;7.50;5.00
21331;DHT22;10824;51.632;4.950;2023-04-03T09:21:57;7.70;1.00
21331;DHT22;10824;51.632;4.950;2023-04-03T09:24:24;7.60;1.00
21331;DHT22;10824;51.632;4.950;2023-04-03T09:27:01;7.70;1.00
21331;DHT22;10824;51.632;4.950;2023-04-03T09:29:30;7.80;1.00
21331;DHT22;10824;51.632;4.950;2023-04-03T09:32:08;7.90;1.00
21331;DHT22;10824;51.632;4.950;2023-04-03T09:34:36;7.80;1.00
21331;DHT22;10824;51.632;4.950;2023-04-03T09:37:05;8.00;1.00
21331;DHT22;10824;51.632;4.950;2023-04-03T09:39:48;8.00;1.00
21331;DHT22;10824;51.632;4.950;2023-04-03T09:42:21;8.10;1.00
21331;DHT22;10824;51.632;4.950;2023-04-03T09:45:04;8.10;1.00
21331;DHT22;10824;51.632;4.950;2023-04-03T09:47:36;8.20;1.00
21331;DHT22;10824;51.632;4.950;2023-04-03T09:50:21;8.10;1.00
21331;DHT22;10824;51.632;4.950;2023-04-03T09:52:51;8.20;1.00
21331;DHT22;10824;51.632;4.950;2023-04-03T09:55:21;8.20;1.00
21331;DHT22;10824;51.632;4.950;2023-04-03T09:58:01;8.20;1.00
21331;DHT22;10824;51.632;4.950;2023-04-03T10:00:33;8.30;1.00
21331;DHT22;10824;51.632;4.950;2023-04-03T10:03:01;8.40;1.00
21331;DHT22;10824;51.632;4.950;2023-04-03T10:05:37;8.50;1.00
21331;DHT22;10824;51.632;4.950;2023-04-03T10:10:37;8.70;1.00
21331;DHT22;10824;51.632;4.950;2023-04-03T10:13:06;8.60;1.00
21331;DHT22;10824;51.632;4.950;2023-04-03T10:15:54;8.60;1.00
21331;DHT22;10824;51.632;4.950;2023-04-03T10:20:53;8.70;1.00
21331;DHT22;10824;51.632;4.950;2023-04-03T10:32:26;9.00;1.00
21331;DHT22;10824;51.632;4.950;2023-04-03T10:41:47;8.90;1.00
21331;DHT22;10824;51.632;4.950;2023-04-03T10:44:15;9.20;1.00
21331;DHT22;10824;51.632;4.950;2023-04-03T10:46:59;9.10;1.00
21331;DHT22;10824;51.632;4.950;2023-04-03T10:55:38;9.50;1.00
21331;DHT22;10824;51.632;4.950;2023-04-03T10:58:06;9.20;1.00
21331;DHT22;10824;51.632;4.950;2023-04-03T11:00:45;9.50;1.00
21331;DHT22;10824;51.632;4.950;2023-04-03T11:03:30;9.60;1.00
21331;DHT22;10824;51.632;4.950;2023-04-03T11:06:02;9.70;1.00
21331;DHT22;10824;51.632;4.950;2023-04-03T11:11:26;9.70;1.00
21331;DHT22;10824;51.632;4.950;2023-04-03T11:14:13;9.80;1.00
21331;DHT22;10824;51.632;4.950;2023-04-03T11:16:47;9.70;1.00
21331;DHT22;10824;51.632;4.950;2023-04-03T11:19:21;9.50;1.00
21331;DHT22;10824;51.632;4.950;2023-04-03T11:21:57;9.90;1.00
21331;DHT22;10824;51.632;4.950;2023-04-03T11:24:32;9.80;1.00
21331;DHT22;10824;51.632;4.950;2023-04-03T11:27:01;9.80;1.00
21331;DHT22;10824;51.632;4.950;2023-04-03T11:29:39;10.00;1.00
21331;DHT22;10824;51.632;4.950;2023-04-03T11:32:37;9.90;1.00
21331;DHT22;10824;51.632;4.950;2023-04-03T11:35:06;10.00;1.00
21331;DHT22;10824;51.632;4.950;2023-04-03T11:37:43;10.00;1.00
21331;DHT22;10824;51.632;4.950;2023-04-03T11:40:25;10.00;1.00
21331;DHT22;10824;51.632;4.950;2023-04-03T11:45:29;10.20;1.00
21331;DHT22;10824;51.632;4.950;2023-04-03T11:50:51;10.40;1.00
21331;DHT22;10824;51.632;4.950;2023-04-03T11:56:04;10.50;1.00
21331;DHT22;10824;51.632;4.950;2023-04-03T11:58:35;10.50;1.00
21331;DHT22;10824;51.632;4.950;2023-04-03T12:03:58;10.60;1.00
21331;DHT22;10824;51.632;4.950;2023-04-03T12:11:51;11.00;1.00
21331;DHT22;10824;51.632;4.950;2023-04-03T12:14:22;11.00;1.00
21331;DHT22;10824;51.632;4.950;2023-04-03T12:16:50;10.90;1.00
21331;DHT22;10824;51.632;4.950;2023-04-03T12:19:32;10.90;1.00
21331;DHT22;10824;51.632;4.950;2023-04-03T12:22:17;11.00;1.00
21331;DHT22;10824;51.632;4.950;2023-04-03T12:24:52;11.30;1.00
21331;DHT22;10824;51.632;4.950;2023-04-03T12:27:29;11.30;1.00
21331;DHT22;10824;51.632;4.950;2023-04-03T12:30:07;11.20;1.00
21331;DHT22;10824;51.632;4.950;2023-04-03T12:36:10;11.00;1.00
21331;DHT22;10824;51.632;4.950;2023-04-03T12:46:42;11.30;1.00
21331;DHT22;10824;51.632;4.950;2023-04-03T12:49:39;11.40;1.00
21331;DHT22;10824;51.632;4.950;2023-04-03T12:52:35;11.40;1.00
21331;DHT22;10824;51.632;4.950;2023-04-03T12:55:13;11.10;1.00
21331;DHT22;10824;51.632;4.950;2023-04-03T12:57:42;11.30;1.00
21331;DHT22;10824;51.632;4.950;2023-04-03T13:00:34;11.50;1.00
21331;DHT22;10824;51.632;4.950;2023-04-03T13:03:02;11.60;1.00
21331;DHT22;10824;51.632;4.950;2023-04-03T13:05:31;11.70;1.00
21331;DHT22;10824;51.632;4.950;2023-04-03T13:08:10;11.50;1.00
21331;DHT22;10824;51.632;4.950;2023-04-03T13:10:59;11.40;1.00
21331;DHT22;10824;51.632;4.950;2023-04-03T13:13:28;11.10;1.00
21331;DHT22;10824;51.632;4.950;2023-04-03T13:15:55;11.50;1.00
21331;DHT22;10824;51.632;4.950;2023-04-03T13:18:34;11.40;1.00
21331;DHT22;10824;51.632;4.950;2023-04-03T13:21:13;11.50;1.00
21331;DHT22;10824;51.632;4.950;2023-04-03T13:23:45;11.40;1.00
21331;DHT22;10824;51.632;4.950;2023-04-03T13:26:16;11.50;1.00
21331;DHT22;10824;51.632;4.950;2023-04-03T13:28:44;11.60;1.00
21331;DHT22;10824;51.632;4.950;2023-04-03T13:34:02;11.50;1.00
21331;DHT22;10824;51.632;4.950;2023-04-03T13:36:32;11.70;1.00
21331;DHT22;10824;51.632;4.950;2023-04-03T13:39:06;11.60;1.00
21331;DHT22;10824;51.632;4.950;2023-04-03T13:41:36;11.40;1.00
21331;DHT22;10824;51.632;4.950;2023-04-03T13:46:45;11.50;1.00
21331;DHT22;10824;51.632;4.950;2023-04-03T13:51:55;11.70;1.00
21331;DHT22;10824;51.632;4.950;2023-04-03T13:54:38;11.70;1.00
21331;DHT22;10824;51.632;4.950;2023-04-03T13:57:16;11.70;1.00
21331;DHT22;10824;51.632;4.950;2023-04-03T13:59:44;11.60;1.00
21331;DHT22;10824;51.632;4.950;2023-04-03T14:07:15;11.60;1.00
21331;DHT22;10824;51.632;4.950;2023-04-03T14:09:43;11.50;1.00
21331;DHT22;10824;51.632;4.950;2023-04-03T14:12:27;11.70;1.00
21331;DHT22;10824;51.632;4.950;2023-04-03T14:15:02;11.60;1.00
21331;DHT22;10824;51.632;4.950;2023-04-03T14:17:29;11.60;1.00
21331;DHT22;10824;51.632;4.950;2023-04-03T14:19:58;11.90;1.00
21331;DHT22;10824;51.632;4.950;2023-04-03T14:22:28;12.00;1.00
21331;DHT22;10824;51.632;4.950;2023-04-03T14:24:56;12.00;1.00
21331;DHT22;10824;51.632;4.950;2023-04-03T14:27:50;12.00;1.00
21331;DHT22;10824;51.632;4.950;2023-04-03T14:30:30;11.90;1.00
21331;DHT22;10824;51.632;4.950;2023-04-03T14:32:58;12.00;1.00
21331;DHT22;10824;51.632;4.950;2023-04-03T14:35:26;11.90;1.00
21331;DHT22;10824;51.632;4.950;2023-04-03T14:37:54;12.10;1.00
21331;DHT22;10824;51.632;4.950;2023-04-03T14:40:26;12.10;1.00
21331;DHT22;10824;51.632;4.950;2023-04-03T14:42:54;11.70;1.00
21331;DHT22;10824;51.632;4.950;2023-04-03T14:45:23;11.90;1.00
21331;DHT22;10824;51.632;4.950;2023-04-03T14:47:53;11.80;1.00
21331;DHT22;10824;51.632;4.950;2023-04-03T14:50:25;11.90;1.00
21331;DHT22;10824;51.632;4.950;2023-04-03T14:52:56;12.00;1.00
21331;DHT22;10824;51.632;4.950;2023-04-03T14:55:24;12.00;1.00
21331;DHT22;10824;51.632;4.950;2023-04-03T14:57:54;11.90;1.00
21331;DHT22;10824;51.632;4.950;2023-04-03T15:00:22;11.90;1.00
21331;DHT22;10824;51.632;4.950;2023-04-03T15:02:50;11.80;1.00
21331;DHT22;10824;51.632;4.950;2023-04-03T15:05:17;11.80;1.00
21331;DHT22;10824;51.632;4.950;2023-04-03T15:07:57;11.80;1.00
21331;DHT22;10824;51.632;4.950;2023-04-03T15:10:26;11.80;1.00
21331;DHT22;10824;51.632;4.950;2023-04-03T15:12:57;12.10;1.00
21331;DHT22;10824;51.632;4.950;2023-04-03T15:15:24;12.10;1.00
21331;DHT22;10824;51.632;4.950;2023-04-03T15:17:56;11.90;1.00
21331;DHT22;10824;51.632;4.950;2023-04-03T15:20:27;11.90;1.00
21331;DHT22;10824;51.632;4.950;2023-04-03T15:22:54;12.00;1.00
21331;DHT22;10824;51.632;4.950;2023-04-03T15:25:23;11.90;1.00
21331;DHT22;10824;51.632;4.950;2023-04-03T15:27:53;11.60;1.00
21331;DHT22;10824;51.632;4.950;2023-04-03T15:30:21;11.70;1.00
21331;DHT22;10824;51.632;4.950;2023-04-03T15:32:48;11.90;1.00
21331;DHT22;10824;51.632;4.950;2023-04-03T15:35:16;11.80;1.00
21331;DHT22;10824;51.632;4.950;2023-04-03T15:37:43;11.90;1.00
21331;DHT22;10824;51.632;4.950;2023-04-03T15:40:10;11.60;1.00
21331;DHT22;10824;51.632;4.950;2023-04-03T15:42:37;11.50;1.00
21331;DHT22;10824;51.632;4.950;2023-04-03T15:45:05;11.40;1.00
21331;DHT22;10824;51.632;4.950;2023-04-03T15:47:33;11.50;1.00
21331;DHT22;10824;51.632;4.950;2023-04-03T15:50:00;11.40;1.00
21331;DHT22;10824;51.632;4.950;2023-04-03T15:52:27;11.40;1.00
21331;DHT22;10824;51.632;4.950;2023-04-03T15:54:54;11.10;1.00
21331;DHT22;10824;51.632;4.950;2023-04-03T15:57:21;11.20;1.00
21331;DHT22;10824;51.632;4.950;2023-04-03T15:59:53;11.10;1.00
21331;DHT22;10824;51.632;4.950;2023-04-03T16:02:20;11.10;1.00
21331;DHT22;10824;51.632;4.950;2023-04-03T16:04:48;11.10;1.00
21331;DHT22;10824;51.632;4.950;2023-04-03T16:07:16;11.10;1.00
21331;DHT22;10824;51.632;4.950;2023-04-03T16:09:43;10.80;1.00
21331;DHT22;10824;51.632;4.950;2023-04-03T16:12:10;11.10;1.00
21331;DHT22;10824;51.632;4.950;2023-04-03T16:14:37;11.00;1.00
21331;DHT22;10824;51.632;4.950;2023-04-03T16:17:04;11.10;1.00
21331;DHT22;10824;51.632;4.950;2023-04-03T16:19:31;11.10;1.00
21331;DHT22;10824;51.632;4.950;2023-04-03T16:21:58;11.00;1.00
21331;DHT22;10824;51.632;4.950;2023-04-03T16:24:25;11.00;1.00
21331;DHT22;10824;51.632;4.950;2023-04-03T16:26:52;10.80;1.00
21331;DHT22;10824;51.632;4.950;2023-04-03T16:29:20;10.80;1.00
21331;DHT22;10824;51.632;4.950;2023-04-03T16:31:47;10.70;1.00
21331;DHT22;10824;51.632;4.950;2023-04-03T16:34:14;10.80;1.00
21331;DHT22;10824;51.632;4.950;2023-04-03T16:36:43;10.60;1.00
21331;DHT22;10824;51.632;4.950;2023-04-03T16:39:10;10.50;1.00
21331;DHT22;10824;51.632;4.950;2023-04-03T16:41:37;10.60;1.00
21331;DHT22;10824;51.632;4.950;2023-04-03T16:44:04;10.50;1.00
21331;DHT22;10824;51.632;4.950;2023-04-03T16:46:34;10.70;1.00
21331;DHT22;10824;51.632;4.950;2023-04-03T16:49:01;10.60;1.00
21331;DHT22;10824;51.632;4.950;2023-04-03T16:51:28;10.70;1.00
21331;DHT22;10824;51.632;4.950;2023-04-03T16:53:56;10.60;1.00
21331;DHT22;10824;51.632;4.950;2023-04-03T16:56:23;10.40;1.00
21331;DHT22;10824;51.632;4.950;2023-04-03T16:58:50;10.30;1.00
21331;DHT22;10824;51.632;4.950;2023-04-03T17:01:19;10.20;1.00
21331;DHT22;10824;51.632;4.950;2023-04-03T17:03:47;10.20;1.00
21331;DHT22;10824;51.632;4.950;2023-04-03T17:06:18;10.30;1.00
21331;DHT22;10824;51.632;4.950;2023-04-03T17:08:47;10.10;1.00
21331;DHT22;10824;51.632;4.950;2023-04-03T17:11:27;9.90;1.00
21331;DHT22;10824;51.632;4.950;2023-04-03T17:13:54;9.90;1.00
21331;DHT22;10824;51.632;4.950;2023-04-03T17:16:21;9.80;1.00
21331;DHT22;10824;51.632;4.950;2023-04-03T17:18:49;9.60;1.00
21331;DHT22;10824;51.632;4.950;2023-04-03T17:21:19;9.60;1.00
21331;DHT22;10824;51.632;4.950;2023-04-03T17:23:50;9.50;1.00
21331;DHT22;10824;51.632;4.950;2023-04-03T17:26:19;9.50;1.00
21331;DHT22;10824;51.632;4.950;2023-04-03T17:28:47;9.50;1.00
21331;DHT22;10824;51.632;4.950;2023-04-03T17:31:14;9.50;1.00
21331;DHT22;10824;51.632;4.950;2023-04-03T17:33:42;9.20;1.00
21331;DHT22;10824;51.632;4.950;2023-04-03T17:36:09;9.20;1.00
21331;DHT22;10824;51.632;4.950;2023-04-03T17:38:37;9.20;1.00
21331;DHT22;10824;51.632;4.950;2023-04-03T17:41:06;9.40;1.00
21331;DHT22;10824;51.632;4.950;2023-04-03T17:43:35;9.20;1.00